PSGAM CZBB-CYAZ
Flight info
| Callsign | PSGAM |
|---|---|
| Flight time | N/A |
| Altitude | 8000 |
| Route | DCT YVR T701 ANVAP DCT VIBGA DCT MUTID DCT |
| Aircraft | SR22/L-SDGRY/S |
Departure
| Time | 2026-05-06 14:05 |
|---|---|
| Airport | Boundary Bay Airport (CZBB) |
Arrival
| Time | N/A |
|---|---|
| Airport | Tofino / Long Beach Airport (CYAZ) |
| Time | Latitude | Longitude | Altitude | Speed | Heading |
|---|---|---|---|---|---|
| 2026-05-06 13:52 | 49.08000 | -123.00908 | 6 ft | 0 kts | 90° |
| 2026-05-06 14:01 | 49.08000 | -123.00907 | 5 ft | 0 kts | 90° |
| 2026-05-06 14:02 | 49.07984 | -123.00893 | 6 ft | 8 kts | 156° |
| 2026-05-06 14:02 | 49.07940 | -123.00768 | 6 ft | 20 kts | 96° |
| 2026-05-06 14:02 | 49.07939 | -123.00480 | 6 ft | 32 kts | 89° |
| 2026-05-06 14:02 | 49.07937 | -123.00156 | 6 ft | 27 kts | 89° |
| 2026-05-06 14:03 | 49.07935 | -122.99886 | 6 ft | 23 kts | 84° |
| 2026-05-06 14:03 | 49.07901 | -122.99701 | 6 ft | 13 kts | 147° |
| 2026-05-06 14:03 | 49.07843 | -122.99620 | 6 ft | 12 kts | 147° |
| 2026-05-06 14:03 | 49.07791 | -122.99626 | 6 ft | 9 kts | 265° |
| 2026-05-06 14:04 | 49.07789 | -122.99668 | 6 ft | 0 kts | 266° |
| 2026-05-06 14:05 | 49.07792 | -122.99923 | 6 ft | 59 kts | 266° |
| 2026-05-06 14:05 | 49.07790 | -123.00857 | 86 ft | 104 kts | 261° |
| 2026-05-06 14:05 | 49.07779 | -123.01931 | 473 ft | 100 kts | 260° |
| 2026-05-06 14:05 | 49.07674 | -123.03014 | 733 ft | 107 kts | 257° |
| 2026-05-06 14:06 | 49.07597 | -123.04240 | 932 ft | 123 kts | 262° |
| 2026-05-06 14:06 | 49.07571 | -123.05574 | 1192 ft | 130 kts | 265° |
| 2026-05-06 14:06 | 49.07575 | -123.06975 | 1453 ft | 135 kts | 266° |
| 2026-05-06 14:06 | 49.07596 | -123.08431 | 1711 ft | 138 kts | 268° |
| 2026-05-06 14:07 | 49.07624 | -123.09894 | 1964 ft | 140 kts | 268° |
| 2026-05-06 14:07 | 49.07656 | -123.11385 | 2218 ft | 141 kts | 268° |
| 2026-05-06 14:07 | 49.07688 | -123.12879 | 2470 ft | 142 kts | 268° |
| 2026-05-06 14:07 | 49.07722 | -123.14387 | 2728 ft | 142 kts | 269° |
| 2026-05-06 14:08 | 49.07730 | -123.15872 | 2980 ft | 141 kts | 268° |
| 2026-05-06 14:08 | 49.07731 | -123.17358 | 3230 ft | 140 kts | 268° |
| 2026-05-06 14:08 | 49.07731 | -123.18840 | 3480 ft | 140 kts | 268° |
| 2026-05-06 14:08 | 49.07730 | -123.20312 | 3726 ft | 139 kts | 268° |
| 2026-05-06 14:09 | 49.07728 | -123.21780 | 3970 ft | 138 kts | 268° |
| 2026-05-06 14:09 | 49.07727 | -123.23222 | 4202 ft | 137 kts | 268° |
| 2026-05-06 14:09 | 49.07725 | -123.24654 | 4419 ft | 136 kts | 268° |
| 2026-05-06 14:09 | 49.07723 | -123.26103 | 4627 ft | 137 kts | 268° |
| 2026-05-06 14:10 | 49.07721 | -123.27567 | 4825 ft | 138 kts | 268° |
| 2026-05-06 14:10 | 49.07718 | -123.29016 | 5034 ft | 137 kts | 268° |
| 2026-05-06 14:10 | 49.07716 | -123.30459 | 5223 ft | 137 kts | 268° |
| 2026-05-06 14:10 | 49.07713 | -123.31916 | 5419 ft | 137 kts | 269° |
| 2026-05-06 14:11 | 49.07710 | -123.33355 | 5616 ft | 137 kts | 269° |
| 2026-05-06 14:11 | 49.07707 | -123.34808 | 5816 ft | 137 kts | 269° |
| 2026-05-06 14:11 | 49.07704 | -123.36256 | 5987 ft | 137 kts | 269° |
| 2026-05-06 14:11 | 49.07701 | -123.37686 | 6176 ft | 136 kts | 269° |
| 2026-05-06 14:12 | 49.07697 | -123.39115 | 6358 ft | 135 kts | 269° |
| 2026-05-06 14:12 | 49.07693 | -123.40546 | 6522 ft | 136 kts | 269° |
| 2026-05-06 14:12 | 49.07689 | -123.41991 | 6672 ft | 137 kts | 269° |
| 2026-05-06 14:12 | 49.07685 | -123.43440 | 6808 ft | 137 kts | 269° |
| 2026-05-06 14:13 | 49.07681 | -123.44890 | 6974 ft | 135 kts | 269° |
| 2026-05-06 14:13 | 49.07676 | -123.46314 | 7121 ft | 136 kts | 269° |
| 2026-05-06 14:13 | 49.07672 | -123.47763 | 7271 ft | 135 kts | 269° |
| 2026-05-06 14:13 | 49.07667 | -123.49199 | 7381 ft | 137 kts | 269° |
| 2026-05-06 14:14 | 49.07661 | -123.50650 | 7532 ft | 137 kts | 269° |
| 2026-05-06 14:14 | 49.07655 | -123.52082 | 7682 ft | 136 kts | 270° |
| 2026-05-06 14:14 | 49.07648 | -123.53515 | 7860 ft | 135 kts | 270° |
| 2026-05-06 14:14 | 49.07642 | -123.54947 | 7988 ft | 135 kts | 270° |
| 2026-05-06 14:15 | 49.07635 | -123.56383 | 8069 ft | 137 kts | 270° |
| 2026-05-06 14:15 | 49.07629 | -123.57874 | 8082 ft | 143 kts | 270° |
| 2026-05-06 14:15 | 49.07621 | -123.59413 | 8058 ft | 147 kts | 270° |
| 2026-05-06 14:15 | 49.07613 | -123.60970 | 8071 ft | 149 kts | 270° |
| 2026-05-06 14:16 | 49.07605 | -123.62554 | 8071 ft | 150 kts | 270° |
| 2026-05-06 14:16 | 49.07597 | -123.64170 | 8080 ft | 152 kts | 270° |
| 2026-05-06 14:16 | 49.07588 | -123.65804 | 8098 ft | 154 kts | 269° |
| 2026-05-06 14:16 | 49.07579 | -123.67432 | 8085 ft | 157 kts | 269° |
| 2026-05-06 14:17 | 49.07569 | -123.69119 | 8097 ft | 158 kts | 269° |
| 2026-05-06 14:17 | 49.07559 | -123.70787 | 8080 ft | 158 kts | 269° |
| 2026-05-06 14:17 | 49.07549 | -123.72465 | 8072 ft | 158 kts | 269° |
| 2026-05-06 14:17 | 49.07539 | -123.74134 | 8075 ft | 159 kts | 269° |
| 2026-05-06 14:18 | 49.07528 | -123.75803 | 8078 ft | 158 kts | 269° |
| 2026-05-06 14:18 | 49.07518 | -123.77486 | 8083 ft | 158 kts | 269° |
| 2026-05-06 14:18 | 49.07506 | -123.79171 | 8083 ft | 159 kts | 269° |
| 2026-05-06 14:18 | 49.07495 | -123.80850 | 8077 ft | 159 kts | 269° |
| 2026-05-06 14:19 | 49.07483 | -123.82542 | 8076 ft | 158 kts | 269° |
| 2026-05-06 14:19 | 49.07471 | -123.84215 | 8072 ft | 158 kts | 269° |
| 2026-05-06 14:19 | 49.07460 | -123.85876 | 8070 ft | 158 kts | 269° |
| 2026-05-06 14:19 | 49.07447 | -123.87553 | 8067 ft | 158 kts | 269° |
| 2026-05-06 14:20 | 49.07435 | -123.89233 | 8070 ft | 157 kts | 269° |
| 2026-05-06 14:20 | 49.07422 | -123.90881 | 8071 ft | 158 kts | 269° |
| 2026-05-06 14:20 | 49.07409 | -123.92553 | 8068 ft | 157 kts | 269° |
| 2026-05-06 14:20 | 49.07396 | -123.94237 | 8060 ft | 157 kts | 269° |
| 2026-05-06 14:21 | 49.07383 | -123.95892 | 8034 ft | 156 kts | 269° |
| 2026-05-06 14:21 | 49.07373 | -123.97525 | 8065 ft | 155 kts | 269° |
| 2026-05-06 14:21 | 49.07366 | -123.99164 | 8059 ft | 155 kts | 270° |
| 2026-05-06 14:21 | 49.07359 | -124.00815 | 8056 ft | 156 kts | 270° |
| 2026-05-06 14:22 | 49.07352 | -124.02471 | 8052 ft | 156 kts | 270° |
| 2026-05-06 14:22 | 49.07345 | -124.04108 | 8071 ft | 156 kts | 270° |
| 2026-05-06 14:22 | 49.07338 | -124.05762 | 8071 ft | 156 kts | 270° |
| 2026-05-06 14:22 | 49.07331 | -124.07436 | 8065 ft | 157 kts | 269° |
| 2026-05-06 14:23 | 49.07323 | -124.09104 | 8065 ft | 157 kts | 269° |
| 2026-05-06 14:23 | 49.07315 | -124.10751 | 8058 ft | 157 kts | 269° |
| 2026-05-06 14:23 | 49.07307 | -124.12425 | 8057 ft | 157 kts | 269° |
| 2026-05-06 14:23 | 49.07286 | -124.14076 | 8061 ft | 155 kts | 269° |
| 2026-05-06 14:24 | 49.07263 | -124.15717 | 8062 ft | 155 kts | 269° |
| 2026-05-06 14:24 | 49.07239 | -124.17348 | 8070 ft | 154 kts | 269° |
| 2026-05-06 14:24 | 49.07215 | -124.18992 | 8069 ft | 155 kts | 269° |
| 2026-05-06 14:24 | 49.07191 | -124.20615 | 8065 ft | 155 kts | 269° |
| 2026-05-06 14:25 | 49.07166 | -124.22259 | 8067 ft | 155 kts | 269° |
| 2026-05-06 14:25 | 49.07141 | -124.23912 | 8078 ft | 156 kts | 269° |
| 2026-05-06 14:25 | 49.07116 | -124.25572 | 8067 ft | 156 kts | 269° |
| 2026-05-06 14:25 | 49.07090 | -124.27219 | 8067 ft | 156 kts | 269° |
| 2026-05-06 14:26 | 49.07008 | -124.28880 | 8060 ft | 157 kts | 256° |
| 2026-05-06 14:26 | 49.06658 | -124.30447 | 8065 ft | 156 kts | 252° |
| 2026-05-06 14:26 | 49.06295 | -124.32001 | 8066 ft | 156 kts | 252° |
| 2026-05-06 14:26 | 49.05924 | -124.33559 | 8065 ft | 156 kts | 252° |
| 2026-05-06 14:27 | 49.05550 | -124.35118 | 8062 ft | 156 kts | 251° |
| 2026-05-06 14:27 | 49.05180 | -124.36648 | 8062 ft | 156 kts | 252° |
| 2026-05-06 14:27 | 49.04803 | -124.38201 | 8062 ft | 155 kts | 251° |
| 2026-05-06 14:27 | 49.04428 | -124.39739 | 8062 ft | 155 kts | 251° |
| 2026-05-06 14:28 | 49.04052 | -124.41281 | 8064 ft | 155 kts | 251° |
| 2026-05-06 14:28 | 49.03674 | -124.42828 | 8064 ft | 155 kts | 251° |
| 2026-05-06 14:28 | 49.03301 | -124.44350 | 8071 ft | 155 kts | 252° |
| 2026-05-06 14:28 | 49.02922 | -124.45896 | 8067 ft | 155 kts | 251° |
| 2026-05-06 14:29 | 49.02548 | -124.47423 | 8073 ft | 154 kts | 252° |
| 2026-05-06 14:29 | 49.02174 | -124.48945 | 8075 ft | 154 kts | 252° |
| 2026-05-06 14:29 | 49.01797 | -124.50475 | 8081 ft | 154 kts | 252° |
| 2026-05-06 14:29 | 49.01417 | -124.52023 | 8080 ft | 155 kts | 251° |
| 2026-05-06 14:30 | 49.01040 | -124.53557 | 8079 ft | 156 kts | 251° |
| 2026-05-06 14:30 | 49.00658 | -124.55103 | 8076 ft | 156 kts | 252° |
| 2026-05-06 14:30 | 49.00278 | -124.56649 | 8074 ft | 156 kts | 251° |
| 2026-05-06 14:30 | 48.99895 | -124.58200 | 8074 ft | 156 kts | 251° |
| 2026-05-06 14:31 | 48.99514 | -124.59745 | 8074 ft | 157 kts | 252° |
| 2026-05-06 14:31 | 48.99128 | -124.61305 | 8069 ft | 156 kts | 252° |
| 2026-05-06 14:31 | 48.98748 | -124.62843 | 8070 ft | 156 kts | 252° |
| 2026-05-06 14:31 | 48.98366 | -124.64388 | 8075 ft | 156 kts | 252° |
| 2026-05-06 14:32 | 48.98211 | -124.65014 | 8074 ft | 156 kts | 251° |
| 2026-05-06 14:32 | 48.97680 | -124.67162 | 8072 ft | 156 kts | 251° |
| 2026-05-06 14:33 | 48.97298 | -124.68703 | 8075 ft | 156 kts | 251° |
| 2026-05-06 14:33 | 48.96996 | -124.69918 | 8080 ft | 156 kts | 251° |
| 2026-05-06 14:33 | 48.96616 | -124.71449 | 8078 ft | 156 kts | 251° |
| 2026-05-06 14:33 | 48.96230 | -124.73007 | 8071 ft | 156 kts | 251° |
| 2026-05-06 14:34 | 48.95852 | -124.74527 | 8081 ft | 155 kts | 251° |
| 2026-05-06 14:34 | 48.95467 | -124.76075 | 8079 ft | 156 kts | 251° |
| 2026-05-06 14:34 | 48.95087 | -124.77605 | 8087 ft | 155 kts | 251° |
| 2026-05-06 14:34 | 48.94702 | -124.79150 | 8085 ft | 156 kts | 251° |
| 2026-05-06 14:35 | 48.94318 | -124.80692 | 8100 ft | 156 kts | 251° |
| 2026-05-06 14:35 | 48.93932 | -124.82237 | 8087 ft | 157 kts | 251° |
| 2026-05-06 14:35 | 48.93548 | -124.83779 | 8093 ft | 156 kts | 251° |
| 2026-05-06 14:35 | 48.93183 | -124.85345 | 8086 ft | 155 kts | 261° |
| 2026-05-06 14:36 | 48.93234 | -124.86947 | 8095 ft | 153 kts | 276° |
| 2026-05-06 14:36 | 48.93362 | -124.88547 | 8102 ft | 153 kts | 277° |
| 2026-05-06 14:36 | 48.93501 | -124.90167 | 8096 ft | 154 kts | 277° |
| 2026-05-06 14:36 | 48.93645 | -124.91777 | 8097 ft | 154 kts | 277° |
| 2026-05-06 14:37 | 48.93793 | -124.93385 | 8096 ft | 154 kts | 278° |
| 2026-05-06 14:37 | 48.93945 | -124.95012 | 8097 ft | 154 kts | 278° |
| 2026-05-06 14:37 | 48.94095 | -124.96606 | 8106 ft | 154 kts | 278° |
| 2026-05-06 14:37 | 48.94248 | -124.98216 | 8098 ft | 154 kts | 278° |
| 2026-05-06 14:38 | 48.94402 | -124.99833 | 8100 ft | 154 kts | 278° |
| 2026-05-06 14:38 | 48.94555 | -125.01439 | 8100 ft | 154 kts | 278° |
| 2026-05-06 14:38 | 48.94706 | -125.03035 | 8102 ft | 153 kts | 278° |
| 2026-05-06 14:38 | 48.94860 | -125.04649 | 8078 ft | 155 kts | 278° |
| 2026-05-06 14:39 | 48.95018 | -125.06305 | 7898 ft | 163 kts | 278° |
| 2026-05-06 14:39 | 48.95184 | -125.08054 | 7713 ft | 169 kts | 278° |
| 2026-05-06 14:39 | 48.95353 | -125.09838 | 7527 ft | 173 kts | 278° |
| 2026-05-06 14:39 | 48.95525 | -125.11654 | 7334 ft | 175 kts | 278° |
| 2026-05-06 14:40 | 48.95698 | -125.13485 | 7137 ft | 177 kts | 278° |
| 2026-05-06 14:40 | 48.95873 | -125.15339 | 6929 ft | 178 kts | 278° |
| 2026-05-06 14:40 | 48.96050 | -125.17216 | 6731 ft | 179 kts | 279° |
| 2026-05-06 14:40 | 48.96226 | -125.19083 | 6536 ft | 180 kts | 279° |
| 2026-05-06 14:41 | 48.96402 | -125.20958 | 6342 ft | 181 kts | 279° |
| 2026-05-06 14:41 | 48.96581 | -125.22868 | 6141 ft | 182 kts | 279° |
| 2026-05-06 14:41 | 48.96759 | -125.24767 | 5940 ft | 183 kts | 279° |
| 2026-05-06 14:41 | 48.96938 | -125.26690 | 5731 ft | 184 kts | 279° |
| 2026-05-06 14:42 | 48.97150 | -125.28581 | 5528 ft | 184 kts | 287° |
| 2026-05-06 14:42 | 48.97548 | -125.30442 | 5326 ft | 184 kts | 289° |
| 2026-05-06 14:42 | 48.97962 | -125.32273 | 5121 ft | 185 kts | 289° |
| 2026-05-06 14:42 | 48.98385 | -125.34121 | 4913 ft | 185 kts | 289° |
| 2026-05-06 14:43 | 48.98804 | -125.35945 | 4706 ft | 185 kts | 289° |
| 2026-05-06 14:43 | 48.99227 | -125.37785 | 4503 ft | 186 kts | 290° |
| 2026-05-06 14:43 | 48.99656 | -125.39652 | 4297 ft | 186 kts | 290° |
| 2026-05-06 14:43 | 49.00083 | -125.41514 | 4092 ft | 188 kts | 291° |
| 2026-05-06 14:44 | 49.00507 | -125.43359 | 3891 ft | 189 kts | 291° |
| 2026-05-06 14:44 | 49.00942 | -125.45261 | 3682 ft | 189 kts | 292° |
| 2026-05-06 14:44 | 49.01368 | -125.47121 | 3465 ft | 190 kts | 292° |
| 2026-05-06 14:45 | 49.02203 | -125.50769 | 3064 ft | 191 kts | 291° |
| 2026-05-06 14:45 | 49.02585 | -125.52445 | 2881 ft | 191 kts | 290° |
| 2026-05-06 14:45 | 49.03017 | -125.54340 | 2676 ft | 191 kts | 290° |
| 2026-05-06 14:45 | 49.03426 | -125.56131 | 2484 ft | 190 kts | 290° |
| 2026-05-06 14:46 | 49.03820 | -125.57860 | 2295 ft | 190 kts | 290° |